sensor_id;sensor_type;location;lat;lon;timestamp;pressure;altitude;pressure_sealevel;temperature;humidity
54882;BME280;40775;51.448;4.742;2023-06-14T00:02:15;101298.44;;;21.48;82.55
54882;BME280;40775;51.448;4.742;2023-06-14T00:04:42;101298.47;;;21.47;82.80
54882;BME280;40775;51.448;4.742;2023-06-14T00:07:10;101305.81;;;21.33;84.35
54882;BME280;40775;51.448;4.742;2023-06-14T00:09:40;101306.66;;;21.35;84.17
54882;BME280;40775;51.448;4.742;2023-06-14T00:12:08;101298.72;;;21.32;83.91
54882;BME280;40775;51.448;4.742;2023-06-14T00:14:35;101311.16;;;21.33;83.46
54882;BME280;40775;51.448;4.742;2023-06-14T00:17:03;101308.59;;;21.26;83.92
54882;BME280;40775;51.448;4.742;2023-06-14T00:19:30;101309.53;;;21.22;84.86
54882;BME280;40775;51.448;4.742;2023-06-14T00:22:01;101306.97;;;21.16;84.61
54882;BME280;40775;51.448;4.742;2023-06-14T00:24:28;101309.84;;;21.01;86.85
54882;BME280;40775;51.448;4.742;2023-06-14T00:26:55;101313.44;;;21.00;86.82
54882;BME280;40775;51.448;4.742;2023-06-14T00:29:22;101314.34;;;20.99;86.57
54882;BME280;40775;51.448;4.742;2023-06-14T00:31:50;101312.78;;;20.86;87.76
54882;BME280;40775;51.448;4.742;2023-06-14T00:34:17;101309.28;;;20.79;88.08
54882;BME280;40775;51.448;4.742;2023-06-14T00:36:44;101312.03;;;20.75;88.43
54882;BME280;40775;51.448;4.742;2023-06-14T00:39:11;101318.25;;;20.75;88.52
54882;BME280;40775;51.448;4.742;2023-06-14T00:41:39;101318.28;;;20.72;88.08
54882;BME280;40775;51.448;4.742;2023-06-14T00:44:06;101316.41;;;20.79;87.29
54882;BME280;40775;51.448;4.742;2023-06-14T00:46:33;101312.06;;;20.72;87.27
54882;BME280;40775;51.448;4.742;2023-06-14T00:49:01;101309.41;;;20.72;86.50
54882;BME280;40775;51.448;4.742;2023-06-14T00:51:28;101312.19;;;20.64;87.58
54882;BME280;40775;51.448;4.742;2023-06-14T00:53:55;101311.31;;;20.62;87.57
54882;BME280;40775;51.448;4.742;2023-06-14T00:56:22;101312.28;;;20.56;87.30
54882;BME280;40775;51.448;4.742;2023-06-14T00:58:50;101304.19;;;20.64;85.82
54882;BME280;40775;51.448;4.742;2023-06-14T01:01:18;101311.38;;;20.57;86.35
54882;BME280;40775;51.448;4.742;2023-06-14T01:03:46;101308.75;;;20.53;87.11
54882;BME280;40775;51.448;4.742;2023-06-14T01:13:20;101311.50;;;20.48;86.09
54882;BME280;40775;51.448;4.742;2023-06-14T01:15:23;101310.53;;;20.52;84.52
54882;BME280;40775;51.448;4.742;2023-06-14T01:17:50;101312.31;;;20.53;84.53
54882;BME280;40775;51.448;4.742;2023-06-14T01:20:32;101305.19;;;20.52;82.67
54882;BME280;40775;51.448;4.742;2023-06-14T01:23:00;101308.81;;;20.48;82.93
54882;BME280;40775;51.448;4.742;2023-06-14T01:25:27;101309.78;;;20.44;82.89
54882;BME280;40775;51.448;4.742;2023-06-14T01:28:04;101305.50;;;20.26;83.87
54882;BME280;40775;51.448;4.742;2023-06-14T01:30:41;101302.97;;;20.16;85.12
54882;BME280;40775;51.448;4.742;2023-06-14T01:33:22;101314.50;;;20.18;86.40
54882;BME280;40775;51.448;4.742;2023-06-14T01:35:53;101312.63;;;20.26;83.83
54882;BME280;40775;51.448;4.742;2023-06-14T01:38:24;101309.97;;;20.24;82.06
54882;BME280;40775;51.448;4.742;2023-06-14T01:40:54;101310.84;;;20.25;81.72
54882;BME280;40775;51.448;4.742;2023-06-14T01:43:22;101304.84;;;20.08;82.96
54882;BME280;40775;51.448;4.742;2023-06-14T01:45:51;101305.84;;;19.97;85.03
54882;BME280;40775;51.448;4.742;2023-06-14T01:48:20;101312.09;;;19.93;85.37
54882;BME280;40775;51.448;4.742;2023-06-14T01:50:52;101320.03;;;19.99;84.22
54882;BME280;40775;51.448;4.742;2023-06-14T01:53:19;101307.56;;;20.04;82.39
54882;BME280;40775;51.448;4.742;2023-06-14T01:55:47;101313.97;;;19.87;84.16
54882;BME280;40775;51.448;4.742;2023-06-14T01:58:16;101305.09;;;19.86;84.03
54882;BME280;40775;51.448;4.742;2023-06-14T02:00:43;101310.47;;;19.82;85.05
54882;BME280;40775;51.448;4.742;2023-06-14T02:03:12;101316.66;;;19.85;84.35
54882;BME280;40775;51.448;4.742;2023-06-14T02:05:39;101319.19;;;19.94;82.74
54882;BME280;40775;51.448;4.742;2023-06-14T02:08:07;101327.28;;;19.87;84.02
54882;BME280;40775;51.448;4.742;2023-06-14T02:10:34;101317.53;;;19.84;83.66
54882;BME280;40775;51.448;4.742;2023-06-14T02:13:03;101321.09;;;19.85;81.85
54882;BME280;40775;51.448;4.742;2023-06-14T02:15:30;101319.41;;;19.78;81.53
54882;BME280;40775;51.448;4.742;2023-06-14T02:18:02;101318.50;;;19.77;82.50
54882;BME280;40775;51.448;4.742;2023-06-14T02:20:30;101314.97;;;19.75;81.44
54882;BME280;40775;51.448;4.742;2023-06-14T02:22:57;101316.78;;;19.70;82.28
54882;BME280;40775;51.448;4.742;2023-06-14T02:25:24;101312.44;;;19.60;83.28
54882;BME280;40775;51.448;4.742;2023-06-14T02:27:55;101315.19;;;19.54;83.15
54882;BME280;40775;51.448;4.742;2023-06-14T02:30:22;101318.72;;;19.56;83.49
54882;BME280;40775;51.448;4.742;2023-06-14T02:32:49;101313.44;;;19.43;84.74
54882;BME280;40775;51.448;4.742;2023-06-14T02:35:20;101321.50;;;19.34;85.86
54882;BME280;40775;51.448;4.742;2023-06-14T02:37:49;101320.59;;;19.38;85.81
54882;BME280;40775;51.448;4.742;2023-06-14T02:40:16;101317.06;;;19.36;86.48
54882;BME280;40775;51.448;4.742;2023-06-14T02:42:43;101326.81;;;19.36;86.59
54882;BME280;40775;51.448;4.742;2023-06-14T02:45:10;101320.59;;;19.38;85.14
54882;BME280;40775;51.448;4.742;2023-06-14T02:47:37;101322.38;;;19.38;85.09
54882;BME280;40775;51.448;4.742;2023-06-14T02:50:06;101324.19;;;19.31;86.36
54882;BME280;40775;51.448;4.742;2023-06-14T02:52:33;101328.66;;;19.31;85.41
54882;BME280;40775;51.448;4.742;2023-06-14T02:55:00;101320.69;;;19.26;85.52
54882;BME280;40775;51.448;4.742;2023-06-14T02:57:28;101331.41;;;19.19;86.39
54882;BME280;40775;51.448;4.742;2023-06-14T02:59:55;101323.44;;;19.12;87.73
54882;BME280;40775;51.448;4.742;2023-06-14T03:02:22;101326.09;;;19.14;86.86
54882;BME280;40775;51.448;4.742;2023-06-14T03:04:49;101331.50;;;19.05;87.43
54882;BME280;40775;51.448;4.742;2023-06-14T03:07:17;101332.47;;;18.92;89.20
54882;BME280;40775;51.448;4.742;2023-06-14T03:09:49;101339.56;;;18.90;89.86
54882;BME280;40775;51.448;4.742;2023-06-14T03:12:16;101335.16;;;18.92;89.66
54882;BME280;40775;51.448;4.742;2023-06-14T03:14:43;101337.81;;;18.90;90.06
54882;BME280;40775;51.448;4.742;2023-06-14T03:17:12;101346.72;;;18.81;91.18
54882;BME280;40775;51.448;4.742;2023-06-14T03:19:40;101332.56;;;18.78;92.30
54882;BME280;40775;51.448;4.742;2023-06-14T03:22:08;101345.91;;;18.67;92.80
54882;BME280;40775;51.448;4.742;2023-06-14T03:24:35;101341.47;;;18.59;93.99
54882;BME280;40775;51.448;4.742;2023-06-14T03:27:04;101344.13;;;18.57;94.53
54882;BME280;40775;51.448;4.742;2023-06-14T03:29:31;101350.38;;;18.53;94.55
54882;BME280;40775;51.448;4.742;2023-06-14T03:32:01;101353.00;;;18.58;95.21
54882;BME280;40775;51.448;4.742;2023-06-14T03:34:29;101351.28;;;18.49;95.27
54882;BME280;40775;51.448;4.742;2023-06-14T03:36:56;101352.16;;;18.51;95.94
54882;BME280;40775;51.448;4.742;2023-06-14T03:39:23;101351.25;;;18.55;95.49
54882;BME280;40775;51.448;4.742;2023-06-14T03:41:50;101352.13;;;18.54;95.46
54882;BME280;40775;51.448;4.742;2023-06-14T03:44:18;101354.81;;;18.51;95.62
54882;BME280;40775;51.448;4.742;2023-06-14T03:46:46;101357.47;;;18.48;96.07
54882;BME280;40775;51.448;4.742;2023-06-14T03:49:13;101362.81;;;18.48;96.89
54882;BME280;40775;51.448;4.742;2023-06-14T03:51:40;101360.13;;;18.51;95.29
54882;BME280;40775;51.448;4.742;2023-06-14T03:54:08;101365.44;;;18.51;96.47
54882;BME280;40775;51.448;4.742;2023-06-14T03:56:38;101376.09;;;18.48;97.15
54882;BME280;40775;51.448;4.742;2023-06-14T03:59:05;101370.78;;;18.48;99.15
54882;BME280;40775;51.448;4.742;2023-06-14T04:01:32;101368.13;;;18.46;98.14
54882;BME280;40775;51.448;4.742;2023-06-14T04:04:00;101365.44;;;18.51;97.84
54882;BME280;40775;51.448;4.742;2023-06-14T04:06:28;101367.22;;;18.52;98.74
54882;BME280;40775;51.448;4.742;2023-06-14T04:09:00;101372.50;;;18.55;96.43
54882;BME280;40775;51.448;4.742;2023-06-14T04:11:31;101376.13;;;18.43;97.29
54882;BME280;40775;51.448;4.742;2023-06-14T04:13:59;101385.00;;;18.38;97.91
54882;BME280;40775;51.448;4.742;2023-06-14T04:16:26;101380.56;;;18.37;98.36
54882;BME280;40775;51.448;4.742;2023-06-14T04:18:55;101382.31;;;18.33;100.00
54882;BME280;40775;51.448;4.742;2023-06-14T04:21:22;101384.13;;;18.30;100.00
54882;BME280;40775;51.448;4.742;2023-06-14T04:23:50;101383.22;;;18.31;100.00
54882;BME280;40775;51.448;4.742;2023-06-14T04:26:20;101380.56;;;18.32;100.00
54882;BME280;40775;51.448;4.742;2023-06-14T04:28:49;101381.47;;;18.36;100.00
54882;BME280;40775;51.448;4.742;2023-06-14T04:31:17;101385.00;;;18.41;100.00
54882;BME280;40775;51.448;4.742;2023-06-14T04:33:45;101380.50;;;18.50;100.00
54882;BME280;40775;51.448;4.742;2023-06-14T04:36:14;101380.50;;;18.67;100.00
54882;BME280;40775;51.448;4.742;2023-06-14T04:38:44;101385.78;;;18.73;99.15
54882;BME280;40775;51.448;4.742;2023-06-14T04:41:13;101380.44;;;18.78;99.78
54882;BME280;40775;51.448;4.742;2023-06-14T04:43:40;101388.41;;;18.81;99.82
54882;BME280;40775;51.448;4.742;2023-06-14T04:46:07;101386.59;;;18.84;100.00
54882;BME280;40775;51.448;4.742;2023-06-14T04:48:39;101389.25;;;18.86;100.00
54882;BME280;40775;51.448;4.742;2023-06-14T04:51:08;101384.78;;;18.90;100.00
54882;BME280;40775;51.448;4.742;2023-06-14T04:53:36;101390.09;;;18.97;100.00
54882;BME280;40775;51.448;4.742;2023-06-14T04:56:04;101391.00;;;18.96;100.00
54882;BME280;40775;51.448;4.742;2023-06-14T04:58:31;101393.53;;;19.14;100.00
54882;BME280;40775;51.448;4.742;2023-06-14T05:00:59;101389.09;;;19.18;100.00
54882;BME280;40775;51.448;4.742;2023-06-14T05:03:26;101389.00;;;19.30;100.00
54882;BME280;40775;51.448;4.742;2023-06-14T05:05:54;101402.25;;;19.39;100.00
54882;BME280;40775;51.448;4.742;2023-06-14T05:08:22;101399.53;;;19.53;100.00
54882;BME280;40775;51.448;4.742;2023-06-14T05:10:52;101403.00;;;19.61;100.00
54882;BME280;40775;51.448;4.742;2023-06-14T05:13:19;101403.78;;;19.77;100.00
54882;BME280;40775;51.448;4.742;2023-06-14T05:15:48;101398.34;;;19.86;100.00
54882;BME280;40775;51.448;4.742;2023-06-14T05:18:15;101403.66;;;19.89;100.00
54882;BME280;40775;51.448;4.742;2023-06-14T05:20:43;101406.19;;;20.03;100.00
54882;BME280;40775;51.448;4.742;2023-06-14T05:23:10;101406.09;;;20.14;99.01
54882;BME280;40775;51.448;4.742;2023-06-14T05:25:46;101405.94;;;20.26;99.31
54882;BME280;40775;51.448;4.742;2023-06-14T05:28:13;101413.91;;;20.30;97.96
54882;BME280;40775;51.448;4.742;2023-06-14T05:30:40;101400.56;;;20.33;96.05
54882;BME280;40775;51.448;4.742;2023-06-14T05:33:07;101406.56;;;20.52;96.33
54882;BME280;40775;51.448;4.742;2023-06-14T05:35:35;101408.34;;;20.55;95.57
54882;BME280;40775;51.448;4.742;2023-06-14T05:38:02;101409.13;;;20.63;95.96
54882;BME280;40775;51.448;4.742;2023-06-14T05:40:29;101406.25;;;20.78;92.93
54882;BME280;40775;51.448;4.742;2023-06-14T05:42:56;101408.88;;;20.84;91.70
54882;BME280;40775;51.448;4.742;2023-06-14T05:45:23;101423.28;;;21.36;94.94
54882;BME280;40775;51.448;4.742;2023-06-14T05:47:50;101417.31;;;22.72;89.12
54882;BME280;40775;51.448;4.742;2023-06-14T05:50:18;101420.47;;;23.34;84.26
54882;BME280;40775;51.448;4.742;2023-06-14T05:52:45;101424.00;;;23.73;80.21
54882;BME280;40775;51.448;4.742;2023-06-14T05:55:12;101428.69;;;24.01;77.68
54882;BME280;40775;51.448;4.742;2023-06-14T05:57:40;101428.03;;;24.25;75.59
54882;BME280;40775;51.448;4.742;2023-06-14T06:00:09;101421.31;;;24.43;74.29
54882;BME280;40775;51.448;4.742;2023-06-14T06:02:44;101427.06;;;24.60;75.03
54882;BME280;40775;51.448;4.742;2023-06-14T06:05:12;101435.63;;;24.75;72.51
54882;BME280;40775;51.448;4.742;2023-06-14T06:07:41;101432.63;;;24.85;71.38
54882;BME280;40775;51.448;4.742;2023-06-14T06:10:09;101427.03;;;24.93;70.36
54882;BME280;40775;51.448;4.742;2023-06-14T06:12:36;101432.22;;;25.01;69.64
54882;BME280;40775;51.448;4.742;2023-06-14T06:15:04;101433.81;;;25.06;69.38
54882;BME280;40775;51.448;4.742;2023-06-14T06:17:31;101434.50;;;25.13;68.74
54882;BME280;40775;51.448;4.742;2023-06-14T06:20:18;101437.00;;;25.19;68.99
54882;BME280;40775;51.448;4.742;2023-06-14T06:22:45;101436.88;;;25.23;68.03
54882;BME280;40775;51.448;4.742;2023-06-14T06:25:12;101441.09;;;25.32;76.17
54882;BME280;40775;51.448;4.742;2023-06-14T06:27:41;101434.63;;;25.38;75.76
54882;BME280;40775;51.448;4.742;2023-06-14T06:30:09;101437.28;;;25.39;69.48
54882;BME280;40775;51.448;4.742;2023-06-14T06:32:36;101439.91;;;25.41;68.61
54882;BME280;40775;51.448;4.742;2023-06-14T06:35:04;101438.00;;;25.44;70.87
54882;BME280;40775;51.448;4.742;2023-06-14T06:37:34;101436.13;;;25.46;68.37
54882;BME280;40775;51.448;4.742;2023-06-14T06:40:01;101434.22;;;25.51;75.29
54882;BME280;40775;51.448;4.742;2023-06-14T06:42:30;101450.28;;;25.53;72.00
54882;BME280;40775;51.448;4.742;2023-06-14T06:44:58;101448.47;;;25.53;70.29
54882;BME280;40775;51.448;4.742;2023-06-14T06:47:25;101443.97;;;25.54;68.75
54882;BME280;40775;51.448;4.742;2023-06-14T06:49:52;101439.50;;;25.54;67.97
54882;BME280;40775;51.448;4.742;2023-06-14T06:52:19;101456.50;;;25.55;67.54
54882;BME280;40775;51.448;4.742;2023-06-14T06:54:46;101455.50;;;25.57;69.01
54882;BME280;40775;51.448;4.742;2023-06-14T06:57:14;101459.09;;;25.58;67.73
54882;BME280;40775;51.448;4.742;2023-06-14T06:59:41;101466.22;;;25.59;67.48
54882;BME280;40775;51.448;4.742;2023-06-14T07:02:08;101467.97;;;25.60;67.82
54882;BME280;40775;51.448;4.742;2023-06-14T07:04:35;101466.16;;;25.61;67.69
54882;BME280;40775;51.448;4.742;2023-06-14T07:07:02;101470.63;;;25.62;68.59
54882;BME280;40775;51.448;4.742;2023-06-14T07:09:29;101462.50;;;25.63;69.93
54882;BME280;40775;51.448;4.742;2023-06-14T07:11:56;101476.81;;;25.64;69.57
54882;BME280;40775;51.448;4.742;2023-06-14T07:14:23;101478.50;;;25.68;73.59
54882;BME280;40775;51.448;4.742;2023-06-14T07:16:51;101479.44;;;25.67;69.18
54882;BME280;40775;51.448;4.742;2023-06-14T07:19:18;101483.91;;;25.68;72.11
54882;BME280;40775;51.448;4.742;2023-06-14T07:21:46;101483.84;;;25.69;73.57
54882;BME280;40775;51.448;4.742;2023-06-14T07:24:13;101480.28;;;25.69;71.07
54882;BME280;40775;51.448;4.742;2023-06-14T07:26:41;101483.78;;;25.71;73.90
54882;BME280;40775;51.448;4.742;2023-06-14T07:29:08;101481.16;;;25.69;70.75
54882;BME280;40775;51.448;4.742;2023-06-14T07:31:35;101488.25;;;25.72;72.64
54882;BME280;40775;51.448;4.742;2023-06-14T07:34:02;101482.97;;;25.69;69.64
54882;BME280;40775;51.448;4.742;2023-06-14T07:36:29;101486.47;;;25.71;69.54
54882;BME280;40775;51.448;4.742;2023-06-14T07:38:56;101490.94;;;25.72;70.84
54882;BME280;40775;51.448;4.742;2023-06-14T07:41:24;101495.38;;;25.73;71.66
54882;BME280;40775;51.448;4.742;2023-06-14T07:43:51;101495.38;;;25.73;75.93
54882;BME280;40775;51.448;4.742;2023-06-14T07:46:18;101494.38;;;25.77;81.34
54882;BME280;40775;51.448;4.742;2023-06-14T07:48:45;101494.38;;;25.77;79.15
54882;BME280;40775;51.448;4.742;2023-06-14T07:51:13;101491.63;;;25.78;76.23
54882;BME280;40775;51.448;4.742;2023-06-14T07:53:40;101490.81;;;25.76;75.15
54882;BME280;40775;51.448;4.742;2023-06-14T07:56:08;101493.44;;;25.78;75.50
54882;BME280;40775;51.448;4.742;2023-06-14T07:58:35;101502.41;;;25.78;72.47
54882;BME280;40775;51.448;4.742;2023-06-14T08:01:02;101495.22;;;25.79;74.65
54882;BME280;40775;51.448;4.742;2023-06-14T08:03:33;101503.22;;;25.80;80.54
54882;BME280;40775;51.448;4.742;2023-06-14T08:06:00;101502.28;;;25.81;79.98
54882;BME280;40775;51.448;4.742;2023-06-14T08:08:28;101501.38;;;25.82;82.53
54882;BME280;40775;51.448;4.742;2023-06-14T08:10:55;101497.75;;;25.83;81.04
54882;BME280;40775;51.448;4.742;2023-06-14T08:13:25;101513.00;;;25.83;80.11
54882;BME280;40775;51.448;4.742;2023-06-14T08:15:53;101499.44;;;25.86;83.47
54882;BME280;40775;51.448;4.742;2023-06-14T08:18:21;101499.44;;;25.86;83.44
54882;BME280;40775;51.448;4.742;2023-06-14T08:20:48;101492.31;;;25.85;83.06
54882;BME280;40775;51.448;4.742;2023-06-14T08:23:15;101490.44;;;25.87;83.29
54882;BME280;40775;51.448;4.742;2023-06-14T08:25:46;101502.16;;;25.86;78.78
54882;BME280;40775;51.448;4.742;2023-06-14T08:28:13;101498.53;;;25.87;82.16
54882;BME280;40775;51.448;4.742;2023-06-14T08:30:41;101509.28;;;25.87;76.55
54882;BME280;40775;51.448;4.742;2023-06-14T08:33:09;101501.22;;;25.87;80.26
54882;BME280;40775;51.448;4.742;2023-06-14T08:35:43;101501.25;;;25.85;81.03
54882;BME280;40775;51.448;4.742;2023-06-14T08:38:11;101502.03;;;25.89;85.62
54882;BME280;40775;51.448;4.742;2023-06-14T08:40:40;101506.53;;;25.88;81.53
54882;BME280;40775;51.448;4.742;2023-06-14T08:43:09;101504.72;;;25.89;82.20
54882;BME280;40775;51.448;4.742;2023-06-14T08:45:36;101503.84;;;25.88;80.17
54882;BME280;40775;51.448;4.742;2023-06-14T08:48:08;101511.03;;;25.88;78.34
54882;BME280;40775;51.448;4.742;2023-06-14T08:50:37;101502.91;;;25.90;84.94
54882;BME280;40775;51.448;4.742;2023-06-14T08:53:08;101508.25;;;25.91;84.97
54882;BME280;40775;51.448;4.742;2023-06-14T08:55:38;101502.88;;;25.91;84.85
54882;BME280;40775;51.448;4.742;2023-06-14T08:58:09;101506.38;;;25.93;86.98
54882;BME280;40775;51.448;4.742;2023-06-14T09:00:41;101503.69;;;25.93;87.74
54882;BME280;40775;51.448;4.742;2023-06-14T09:03:10;101511.75;;;25.93;82.86
54882;BME280;40775;51.448;4.742;2023-06-14T09:05:41;101508.19;;;25.93;80.50
54882;BME280;40775;51.448;4.742;2023-06-14T09:08:08;101501.81;;;25.95;87.26
54882;BME280;40775;51.448;4.742;2023-06-14T09:10:35;101502.72;;;25.96;88.79
54882;BME280;40775;51.448;4.742;2023-06-14T09:13:05;101508.03;;;25.97;88.92
54882;BME280;40775;51.448;4.742;2023-06-14T09:15:33;101506.22;;;25.98;89.19
54882;BME280;40775;51.448;4.742;2023-06-14T09:18:03;101516.94;;;25.99;85.22
54882;BME280;40775;51.448;4.742;2023-06-14T09:20:31;101522.38;;;25.98;86.08
54882;BME280;40775;51.448;4.742;2023-06-14T09:23:01;101518.81;;;25.97;86.12
54882;BME280;40775;51.448;4.742;2023-06-14T09:25:28;101522.31;;;25.99;87.23
54882;BME280;40775;51.448;4.742;2023-06-14T09:28:09;101527.75;;;25.98;85.26
54882;BME280;40775;51.448;4.742;2023-06-14T09:30:39;101520.56;;;25.98;85.90
54882;BME280;40775;51.448;4.742;2023-06-14T09:33:07;101522.31;;;25.99;87.85
54882;BME280;40775;51.448;4.742;2023-06-14T09:35:35;101511.50;;;26.01;88.33
54882;BME280;40775;51.448;4.742;2023-06-14T09:38:03;101524.94;;;26.02;89.78
54882;BME280;40775;51.448;4.742;2023-06-14T09:40:34;101525.81;;;26.03;89.99
54882;BME280;40775;51.448;4.742;2023-06-14T09:43:05;101526.69;;;26.03;89.43
54882;BME280;40775;51.448;4.742;2023-06-14T09:45:33;101530.28;;;26.04;89.31
54882;BME280;40775;51.448;4.742;2023-06-14T09:48:01;101532.91;;;26.05;89.73
54882;BME280;40775;51.448;4.742;2023-06-14T09:50:34;101534.72;;;26.05;88.47
54882;BME280;40775;51.448;4.742;2023-06-14T09:53:10;101530.22;;;26.05;89.67
54882;BME280;40775;51.448;4.742;2023-06-14T09:55:41;101530.16;;;26.07;90.08
54882;BME280;40775;51.448;4.742;2023-06-14T09:58:10;101526.59;;;26.06;89.83
54882;BME280;40775;51.448;4.742;2023-06-14T10:00:38;101524.84;;;26.05;86.29
54882;BME280;40775;51.448;4.742;2023-06-14T10:03:13;101522.97;;;26.07;89.28
54882;BME280;40775;51.448;4.742;2023-06-14T10:05:46;101527.41;;;26.08;89.33
54882;BME280;40775;51.448;4.742;2023-06-14T10:08:18;101526.53;;;26.08;88.18
54882;BME280;40775;51.448;4.742;2023-06-14T10:10:46;101527.41;;;26.08;87.31
54882;BME280;40775;51.448;4.742;2023-06-14T10:13:14;101522.03;;;26.08;88.80
54882;BME280;40775;51.448;4.742;2023-06-14T10:16:10;101525.56;;;26.10;88.56
54882;BME280;40775;51.448;4.742;2023-06-14T10:22:00;101522.81;;;26.12;88.86
54882;BME280;40775;51.448;4.742;2023-06-14T10:24:40;101521.00;;;26.12;87.51
54882;BME280;40775;51.448;4.742;2023-06-14T10:27:09;101528.13;;;26.13;88.98
54882;BME280;40775;51.448;4.742;2023-06-14T10:32:25;101526.31;;;26.14;88.16
54882;BME280;40775;51.448;4.742;2023-06-14T10:35:05;101528.13;;;26.13;86.63
54882;BME280;40775;51.448;4.742;2023-06-14T10:37:36;101521.81;;;26.14;87.83
54882;BME280;40775;51.448;4.742;2023-06-14T10:40:05;101525.34;;;26.16;89.11
54882;BME280;40775;51.448;4.742;2023-06-14T10:42:35;101519.97;;;26.16;89.01
54882;BME280;40775;51.448;4.742;2023-06-14T10:45:06;101527.09;;;26.17;87.45
54882;BME280;40775;51.448;4.742;2023-06-14T10:47:34;101526.16;;;26.18;88.57
54882;BME280;40775;51.448;4.742;2023-06-14T10:50:06;101527.97;;;26.18;87.61
54882;BME280;40775;51.448;4.742;2023-06-14T10:52:38;101531.56;;;26.18;86.00
54882;BME280;40775;51.448;4.742;2023-06-14T10:57:51;101527.81;;;26.23;88.72
54882;BME280;40775;51.448;4.742;2023-06-14T11:00:24;101528.69;;;26.23;89.00
54882;BME280;40775;51.448;4.742;2023-06-14T11:03:41;101528.69;;;26.23;88.79
54882;BME280;40775;51.448;4.742;2023-06-14T11:06:15;101527.75;;;26.24;88.97
54882;BME280;40775;51.448;4.742;2023-06-14T11:11:48;101525.84;;;26.28;88.64
54882;BME280;40775;51.448;4.742;2023-06-14T11:14:16;101516.88;;;26.27;87.97
54882;BME280;40775;51.448;4.742;2023-06-14T11:16:49;101516.88;;;26.27;88.22
54882;BME280;40775;51.448;4.742;2023-06-14T11:19:16;101521.34;;;26.28;86.68
54882;BME280;40775;51.448;4.742;2023-06-14T11:21:48;101521.31;;;26.30;87.55
54882;BME280;40775;51.448;4.742;2023-06-14T11:24:16;101525.78;;;26.31;87.37
54882;BME280;40775;51.448;4.742;2023-06-14T11:26:43;101526.66;;;26.31;85.05
54882;BME280;40775;51.448;4.742;2023-06-14T11:29:11;101523.03;;;26.32;87.20
54882;BME280;40775;51.448;4.742;2023-06-14T11:31:38;101510.56;;;26.30;81.73
54882;BME280;40775;51.448;4.742;2023-06-14T11:34:10;101512.31;;;26.31;81.76
54882;BME280;40775;51.448;4.742;2023-06-14T11:36:37;101514.94;;;26.34;85.77
54882;BME280;40775;51.448;4.742;2023-06-14T11:39:06;101514.94;;;26.34;84.45
54882;BME280;40775;51.448;4.742;2023-06-14T11:41:44;101515.81;;;26.34;85.28
54882;BME280;40775;51.448;4.742;2023-06-14T11:44:12;101516.69;;;26.35;85.48
54882;BME280;40775;51.448;4.742;2023-06-14T11:46:39;101513.13;;;26.34;81.65
54882;BME280;40775;51.448;4.742;2023-06-14T11:49:07;101507.75;;;26.33;79.79
54882;BME280;40775;51.448;4.742;2023-06-14T11:51:37;101505.91;;;26.35;83.96
54882;BME280;40775;51.448;4.742;2023-06-14T11:54:06;101505.03;;;26.34;84.01
54882;BME280;40775;51.448;4.742;2023-06-14T11:56:34;101508.50;;;26.38;83.54
54882;BME280;40775;51.448;4.742;2023-06-14T11:59:03;101510.19;;;26.40;83.16
54882;BME280;40775;51.448;4.742;2023-06-14T12:01:36;101510.16;;;26.42;81.76
54882;BME280;40775;51.448;4.742;2023-06-14T12:04:05;101513.78;;;26.41;81.92
54882;BME280;40775;51.448;4.742;2023-06-14T12:06:33;101513.72;;;26.42;80.88
54882;BME280;40775;51.448;4.742;2023-06-14T12:09:03;101515.47;;;26.43;81.62
54882;BME280;40775;51.448;4.742;2023-06-14T12:11:35;101513.66;;;26.44;82.03
54882;BME280;40775;51.448;4.742;2023-06-14T12:14:04;101505.63;;;26.42;79.70
54882;BME280;40775;51.448;4.742;2023-06-14T12:16:34;101512.66;;;26.46;79.93
54882;BME280;40775;51.448;4.742;2023-06-14T12:19:16;101501.84;;;26.48;81.62
54882;BME280;40775;51.448;4.742;2023-06-14T12:21:47;101510.81;;;26.48;81.30
54882;BME280;40775;51.448;4.742;2023-06-14T12:24:16;101505.38;;;26.50;80.80
54882;BME280;40775;51.448;4.742;2023-06-14T12:26:43;101509.00;;;26.49;81.15
54882;BME280;40775;51.448;4.742;2023-06-14T12:29:10;101504.47;;;26.49;79.97
54882;BME280;40775;51.448;4.742;2023-06-14T12:31:40;101508.00;;;26.52;79.98
54882;BME280;40775;51.448;4.742;2023-06-14T12:34:08;101513.38;;;26.52;80.10
54882;BME280;40775;51.448;4.742;2023-06-14T12:36:35;101505.31;;;26.52;80.40
54882;BME280;40775;51.448;4.742;2023-06-14T12:39:08;101516.84;;;26.55;80.08
54882;BME280;40775;51.448;4.742;2023-06-14T12:41:36;101515.91;;;26.56;78.40
54882;BME280;40775;51.448;4.742;2023-06-14T12:44:04;101517.69;;;26.57;78.46
54882;BME280;40775;51.448;4.742;2023-06-14T12:46:31;101511.41;;;26.57;77.91
54882;BME280;40775;51.448;4.742;2023-06-14T12:48:59;101514.16;;;26.55;77.10
54882;BME280;40775;51.448;4.742;2023-06-14T12:51:26;101506.00;;;26.57;77.96
54882;BME280;40775;51.448;4.742;2023-06-14T12:53:54;101513.09;;;26.61;78.41
54882;BME280;40775;51.448;4.742;2023-06-14T12:56:21;101505.00;;;26.61;78.46
54882;BME280;40775;51.448;4.742;2023-06-14T12:58:50;101515.72;;;26.62;78.53
54882;BME280;40775;51.448;4.742;2023-06-14T13:01:19;101512.84;;;26.67;78.38
54882;BME280;40775;51.448;4.742;2023-06-14T13:03:47;101509.22;;;26.68;78.40
54882;BME280;40775;51.448;4.742;2023-06-14T13:06:14;101511.03;;;26.67;77.73
54882;BME280;40775;51.448;4.742;2023-06-14T13:08:41;101507.28;;;26.71;78.00
54882;BME280;40775;51.448;4.742;2023-06-14T13:11:09;101505.53;;;26.70;76.24
54882;BME280;40775;51.448;4.742;2023-06-14T13:13:36;101517.13;;;26.72;77.67
54882;BME280;40775;51.448;4.742;2023-06-14T13:16:03;101508.13;;;26.73;77.52
54882;BME280;40775;51.448;4.742;2023-06-14T13:18:30;101511.56;;;26.77;77.01